• Join FlightAware (Why Join?)
  • Login
  • US Flag 
02:23AM EDT


 

Airport Tracker/Info


-or-


 

Live Flight TrackerFlight Track Log ✈ PDT4207 ✈ 04-Nov-2013 ✈ KPHL - KBGM

Flight Track Log - Related Links

Times and Time Zones

All times are in EST time to prevent confusion due to time zone crossing. See the PDT4207 flight status page for this flight to view local times or setup timezone preferences in your user account.

Time Position Orientation Groundspeed Altitude Reporting Facility
EST Latitude Longitude Course Direction KTS MPH feet Rate Location/Type
09:33PM 39.8833 -75.2000 311° West 116 133 800  Level Philadelphia TRACON
09:34PM 39.9000 -75.1833 37° Northeast 126 145 2,200 1,560 Climbing Philadelphia TRACON
09:36PM 40.0485 -75.2948 303° West  Level Estimated
09:36PM 39.9669 -75.1694 North 135 155 5,200  Level New York Center
09:37PM 40.1073 -75.3128 North  Level Estimated
09:37PM 39.9969 -75.2039 319° Northwest 142 163 6,900  Level New York Center
09:38PM 40.1660 -75.3308 North  Level Estimated
09:38PM 40.0197 -75.2594 298° West 159 183 8,500  Level New York Center
09:39PM 40.2247 -75.3489 311° West  Level Estimated
09:39PM 40.0469 -75.3128 304° West 170 196 9,100  Level New York Center
09:40PM 40.0803 -75.3639 310° West 185 213 9,100  Level New York Center
09:41PM 40.1278 -75.4319 312° West 220 253 9,100 -60 Level New York Center
09:42PM 40.1653 -75.4861 312° West 225 259 9,000 -60 Descending New York Center
09:43PM 40.2086 -75.5489 312° West 225 259 9,000  Level New York Center
09:44PM 40.2578 -75.6175 313° West 225 259 9,000 120 Level New York Center
09:45PM 40.2969 -75.6803 309° West 220 253 9,300 480 Climbing New York Center
09:46PM 40.3322 -75.7344 311° West 220 253 10,000 720 Climbing New York Center
09:47PM 40.3675 -75.7889 310° West 208 239 10,800 840 Climbing New York Center
09:48PM 40.4133 -75.8386 320° Northwest 198 228 11,700 600 Climbing New York Center
09:49PM 40.4683 -75.8617 342° North 198 228 12,000 120 Climbing New York Center
09:50PM 40.5278 -75.8906 340° North 218 251 12,000  Level New York Center
09:51PM 40.5853 -75.9086 347° North 231 266 12,000  Level New York Center
09:52PM 40.6525 -75.9436 338° Northwest 236 272 12,000  Level New York Center
09:53PM 40.7156 -75.9786 337° Northwest 236 272 12,000 -240 Level New York Center
09:54PM 40.7792 -76.0025 344° North 236 272 11,600 -540 Descending New York Center
09:55PM 40.8486 -76.0325 342° North 247 284 11,000 -360 Descending New York Center
09:56PM 40.9117 -76.0650 339° North 247 284 10,900  Descending New York Center
09:57PM 40.9750 -76.0947 340° North 242 278 11,000  Climbing New York Center
09:58PM 41.0406 -76.1217 343° North 242 278 11,000  Level New York Center
09:59PM 41.0958 -76.1425 344° North 236 272 11,000  Level New York Center
10:00PM 41.1589 -76.1725 340° North 236 272 11,000  Level New York Center
10:01PM 41.2261 -76.2081 338° Northwest 241 277 11,000  Level New York Center
10:02PM 41.2931 -76.2025 North 236 272 11,000  Level New York Center
10:03PM 41.3619 -76.1969 North 236 272 11,000  Level New York Center
10:04PM 41.4225 -76.1936 North 236 272 11,000  Level New York Center
10:05PM 41.4897 -76.1853 North 236 272 11,000 -300 Level New York Center
10:06PM 41.5669 -76.1803 North 241 277 10,500 -780 Descending New York Center
10:07PM 41.6400 -76.1750 North 253 291 9,500 -780 Descending New York Center
10:08PM 41.7131 -76.1700 North 262 302 9,000 -360 Descending New York Center
10:09PM 41.7739 -76.1636 North 251 289 8,800 -720 Descending New York Center
10:10PM 41.8442 -76.1306 19° North 251 289 7,600 -1,260 Descending New York Center
10:11PM 41.9225 -76.0978 17° North 262 302 6,300 -1,320 Descending New York Center
10:12PM 41.9925 -76.0672 18° North 267 307 5,000 -1,200 Descending New York Center
10:13PM 42.0583 -76.0389 18° North 267 307 3,900 -960 Descending New York Center
10:14PM 42.1225 -75.9992 25° Northeast 267 307 3,100 -540 Descending New York Center
10:15PM 42.1661 -75.9553 37° Northeast 230 265 2,900 -480 Descending New York Center
10:16PM 42.2083 -75.9417 13° North 217 250 2,200 -720 Descending New York Center